Time;durP1;ratioP1;P1;durP2;ratioP2;P2;SDS_P1;SDS_P2;PMS_P1;PMS_P2;Temp;Humidity;BMP_temperature;BMP_pressure;BME280_temperature;BME280_humidity;BME280_pressure;Samples;Min_cycle;Max_cycle;Signal;HPM_P1;HPM_P2
2021/12/19 00:01:14;;;;;;;8.07;4.63;;;;;;;;;;5045459;28;20196;-67
2021/12/19 00:04:01;;;;;;;9.07;4.93;;;;;;;;;;5030092;28;20210;-68
2021/12/19 00:09:10;;;;;;;8.07;4.20;;;;;;;;;;5037276;28;20703;-67
2021/12/19 00:11:37;;;;;;;8.67;4.33;;;;;;;;;;5042208;28;20194;-68
2021/12/19 00:14:03;;;;;;;8.83;4.07;;;;;;;;;;5038169;28;20189;-67
2021/12/19 00:16:29;;;;;;;9.50;4.93;;;;;;;;;;5042636;28;20266;-68
2021/12/19 00:18:54;;;;;;;8.87;4.70;;;;;;;;;;5045278;28;20632;-68
2021/12/19 00:21:22;;;;;;;10.67;4.97;;;;;;;;;;5036414;28;20189;-68
2021/12/19 00:23:49;;;;;;;12.57;5.00;;;;;;;;;;5048685;28;20201;-68
2021/12/19 00:26:16;;;;;;;10.60;5.27;;;;;;;;;;5034928;28;20221;-68
2021/12/19 00:28:42;;;;;;;8.47;4.70;;;;;;;;;;5041542;28;20224;-68
2021/12/19 00:31:08;;;;;;;10.30;5.60;;;;;;;;;;5029200;28;20213;-68
2021/12/19 00:33:34;;;;;;;9.93;4.93;;;;;;;;;;5044625;28;20205;-68
2021/12/19 00:36:00;;;;;;;9.20;5.63;;;;;;;;;;5035803;28;20193;-68
2021/12/19 00:38:26;;;;;;;9.57;4.63;;;;;;;;;;5046515;28;20200;-68
2021/12/19 00:40:51;;;;;;;9.43;4.73;;;;;;;;;;5037524;28;20198;-68
2021/12/19 00:43:45;;;;;;;10.60;4.73;;;;;;;;;;5047205;28;20188;-68
2021/12/19 00:46:10;;;;;;;7.77;4.40;;;;;;;;;;5033543;28;20197;-68
2021/12/19 00:48:41;;;;;;;11.30;4.90;;;;;;;;;;5047218;28;20184;-68
2021/12/19 00:51:08;;;;;;;7.93;4.57;;;;;;;;;;5037709;28;20194;-68
2021/12/19 00:53:34;;;;;;;10.17;5.20;;;;;;;;;;5044942;28;20645;-68
2021/12/19 00:56:00;;;;;;;9.20;4.83;;;;;;;;;;5034523;28;20292;-69
2021/12/19 00:58:25;;;;;;;9.53;4.77;;;;;;;;;;5043467;28;20667;-68
2021/12/19 01:00:50;;;;;;;8.00;4.33;;;;;;;;;;5046303;28;20302;-68
2021/12/19 01:03:17;;;;;;;10.40;4.83;;;;;;;;;;5036266;28;20219;-68
2021/12/19 01:05:43;;;;;;;9.87;5.33;;;;;;;;;;5044402;28;20688;-68
2021/12/19 01:08:11;;;;;;;7.83;4.43;;;;;;;;;;5034415;28;20212;-68
2021/12/19 01:10:37;;;;;;;7.57;4.30;;;;;;;;;;5044339;28;20311;-68
2021/12/19 01:13:02;;;;;;;11.07;5.30;;;;;;;;;;5036898;28;20284;-68
2021/12/19 01:15:29;;;;;;;9.20;4.80;;;;;;;;;;5044593;28;20546;-68
2021/12/19 01:17:54;;;;;;;8.40;4.50;;;;;;;;;;5034350;28;20592;-68
2021/12/19 01:20:24;;;;;;;13.83;6.20;;;;;;;;;;5040572;28;20246;-68
2021/12/19 01:22:51;;;;;;;9.50;4.50;;;;;;;;;;5033176;28;20246;-69
2021/12/19 01:25:16;;;;;;;9.20;4.17;;;;;;;;;;5043870;28;20210;-68
2021/12/19 01:27:42;;;;;;;11.83;5.17;;;;;;;;;;5033239;28;20201;-68
2021/12/19 01:30:09;;;;;;;11.00;4.53;;;;;;;;;;5046630;28;20193;-68
2021/12/19 01:32:35;;;;;;;9.03;4.63;;;;;;;;;;5037863;28;20218;-68
2021/12/19 01:35:00;;;;;;;9.50;4.63;;;;;;;;;;5037565;28;20205;-69
2021/12/19 01:37:26;;;;;;;10.20;5.37;;;;;;;;;;5039753;28;20204;-68
2021/12/19 01:39:52;;;;;;;9.13;4.60;;;;;;;;;;5037309;28;20186;-68
2021/12/19 01:42:19;;;;;;;10.10;5.03;;;;;;;;;;5039162;28;20190;-68
2021/12/19 01:44:46;;;;;;;8.60;4.30;;;;;;;;;;5035467;28;20273;-68
2021/12/19 01:47:11;;;;;;;8.90;4.67;;;;;;;;;;5042024;28;20209;-69
2021/12/19 01:49:37;;;;;;;9.07;3.80;;;;;;;;;;5040723;28;20188;-68
2021/12/19 01:52:03;;;;;;;11.27;4.63;;;;;;;;;;5046020;28;20185;-68
2021/12/19 01:54:29;;;;;;;10.17;4.37;;;;;;;;;;5039305;28;20216;-68
2021/12/19 01:56:54;;;;;;;12.13;5.13;;;;;;;;;;5052296;28;20188;-69
2021/12/19 01:59:20;;;;;;;8.73;4.37;;;;;;;;;;5038546;28;20520;-69
2021/12/19 02:01:54;;;;;;;7.00;4.10;;;;;;;;;;5048381;28;20181;-68
2021/12/19 02:04:21;;;;;;;9.17;4.03;;;;;;;;;;5038513;28;20212;-69
2021/12/19 02:06:47;;;;;;;7.90;3.90;;;;;;;;;;5046999;28;20256;-68
2021/12/19 02:09:13;;;;;;;7.27;3.60;;;;;;;;;;5048005;28;20219;-68
2021/12/19 02:11:41;;;;;;;7.37;3.70;;;;;;;;;;5038898;28;20597;-68
2021/12/19 02:14:09;;;;;;;6.67;3.87;;;;;;;;;;5039869;28;20180;-68
2021/12/19 02:16:36;;;;;;;6.23;3.57;;;;;;;;;;5042199;28;20624;-68
2021/12/19 02:19:03;;;;;;;6.07;3.57;;;;;;;;;;5045160;28;20338;-68
2021/12/19 02:21:29;;;;;;;6.47;3.60;;;;;;;;;;5041818;28;20193;-68
2021/12/19 02:23:59;;;;;;;7.70;3.50;;;;;;;;;;5042386;28;20196;-68
2021/12/19 02:26:25;;;;;;;7.97;3.57;;;;;;;;;;5036332;28;20216;-68
2021/12/19 02:28:50;;;;;;;9.37;3.60;;;;;;;;;;5047852;28;20181;-68
2021/12/19 02:31:19;;;;;;;6.47;3.40;;;;;;;;;;5038269;28;20592;-68
2021/12/19 02:33:58;;;;;;;6.47;3.03;;;;;;;;;;5039928;28;20196;-68
2021/12/19 02:36:38;;;;;;;6.00;3.17;;;;;;;;;;5040098;28;20263;-68
2021/12/19 02:39:21;;;;;;;5.53;2.87;;;;;;;;;;5047024;28;20240;-68
2021/12/19 02:50:07;;;;;;;5.47;3.00;;;;;;;;;;5049665;28;20205;-68
2021/12/19 02:52:32;;;;;;;6.50;3.53;;;;;;;;;;5031550;28;20202;-68
2021/12/19 02:54:57;;;;;;;6.53;2.93;;;;;;;;;;5046239;28;20206;-68
2021/12/19 02:57:23;;;;;;;6.63;2.90;;;;;;;;;;5041575;28;20217;-68
2021/12/19 02:59:48;;;;;;;5.87;3.37;;;;;;;;;;5047652;28;20185;-68
2021/12/19 03:02:15;;;;;;;6.60;3.47;;;;;;;;;;5035969;28;20201;-68
2021/12/19 03:04:55;;;;;;;5.40;3.30;;;;;;;;;;5046225;28;20197;-68
2021/12/19 03:07:20;;;;;;;4.87;2.90;;;;;;;;;;5040847;28;20836;-68
2021/12/19 03:10:29;;;;;;;7.80;3.40;;;;;;;;;;5037901;28;20197;-68
2021/12/19 03:18:07;;;;;;;6.60;2.87;;;;;;;;;;5036743;28;20196;-68
2021/12/19 03:20:33;;;;;;;5.30;2.80;;;;;;;;;;5047238;28;20605;-68
2021/12/19 03:23:00;;;;;;;7.80;3.03;;;;;;;;;;5046361;28;20601;-68
2021/12/19 03:25:26;;;;;;;6.20;3.20;;;;;;;;;;5035481;28;20621;-69
2021/12/19 03:27:52;;;;;;;5.67;2.47;;;;;;;;;;5042754;28;20298;-68
2021/12/19 03:30:18;;;;;;;6.93;3.20;;;;;;;;;;5032444;28;20276;-68
2021/12/19 03:32:44;;;;;;;7.33;3.00;;;;;;;;;;5046394;28;20197;-68
2021/12/19 03:35:09;;;;;;;6.83;3.40;;;;;;;;;;5039149;28;20186;-68
2021/12/19 03:37:35;;;;;;;7.40;3.00;;;;;;;;;;5046437;28;20192;-68
2021/12/19 03:40:13;;;;;;;4.80;2.67;;;;;;;;;;5035062;28;20197;-68
2021/12/19 03:42:45;;;;;;;3.90;2.60;;;;;;;;;;5045193;28;20208;-68
2021/12/19 03:45:14;;;;;;;4.93;2.53;;;;;;;;;;5033976;28;20574;-68
2021/12/19 03:47:40;;;;;;;7.27;2.30;;;;;;;;;;5043375;28;20284;-68
2021/12/19 03:50:08;;;;;;;5.40;2.47;;;;;;;;;;5034602;28;20555;-68
2021/12/19 03:52:34;;;;;;;5.83;2.30;;;;;;;;;;5044232;28;20569;-68
2021/12/19 03:55:00;;;;;;;4.57;2.00;;;;;;;;;;5040422;28;20232;-68
2021/12/19 03:57:25;;;;;;;4.43;1.87;;;;;;;;;;5046119;28;20651;-68
2021/12/19 03:59:51;;;;;;;4.77;2.37;;;;;;;;;;5047465;28;20240;-68
2021/12/19 04:02:27;;;;;;;4.20;2.10;;;;;;;;;;5036107;28;20188;-68
2021/12/19 04:04:58;;;;;;;3.37;1.80;;;;;;;;;;5048358;28;20550;-68
2021/12/19 04:07:25;;;;;;;5.00;2.03;;;;;;;;;;5035013;28;20244;-68
2021/12/19 04:09:51;;;;;;;5.23;2.10;;;;;;;;;;5043516;28;20649;-68
2021/12/19 04:12:17;;;;;;;5.53;1.93;;;;;;;;;;5032935;28;20197;-68
2021/12/19 04:14:42;;;;;;;5.33;2.20;;;;;;;;;;5045709;28;20190;-68
2021/12/19 04:17:08;;;;;;;3.07;1.80;;;;;;;;;;5037528;28;20182;-68
2021/12/19 04:19:33;;;;;;;7.00;1.77;;;;;;;;;;5042273;28;20201;-68
2021/12/19 04:21:59;;;;;;;4.70;2.00;;;;;;;;;;5040703;28;20185;-68
2021/12/19 04:24:28;;;;;;;3.70;1.93;;;;;;;;;;5044953;28;20220;-68
2021/12/19 04:26:54;;;;;;;5.17;2.13;;;;;;;;;;5036417;28;20251;-68
2021/12/19 04:29:20;;;;;;;3.60;1.77;;;;;;;;;;5044997;28;20190;-68
2021/12/19 04:31:45;;;;;;;7.53;1.87;;;;;;;;;;5037811;28;20185;-68
2021/12/19 04:34:13;;;;;;;4.67;1.83;;;;;;;;;;5043788;28;20598;-69
2021/12/19 04:36:41;;;;;;;3.27;1.60;;;;;;;;;;5048099;28;20585;-68
2021/12/19 04:42:04;;;;;;;5.47;1.97;;;;;;;;;;5041625;28;20193;-68
2021/12/19 04:53:01;;;;;;;6.43;1.93;;;;;;;;;;5046712;28;20263;-68
2021/12/19 05:01:08;;;;;;;5.30;2.00;;;;;;;;;;5047664;28;20204;-69
2021/12/19 05:03:45;;;;;;;4.77;1.47;;;;;;;;;;5035882;28;20192;-68
2021/12/19 05:14:13;;;;;;;2.43;1.10;;;;;;;;;;5035087;28;20258;-69
2021/12/19 05:16:42;;;;;;;2.17;1.00;;;;;;;;;;5042497;28;20223;-68
2021/12/19 05:19:22;;;;;;;1.30;0.70;;;;;;;;;;5040022;28;20656;-69
2021/12/19 05:21:51;;;;;;;1.53;0.80;;;;;;;;;;5042601;28;20196;-68
2021/12/19 05:24:45;;;;;;;2.90;1.03;;;;;;;;;;5048171;28;20539;-68
2021/12/19 05:27:09;;;;;;;2.00;0.67;;;;;;;;;;5046985;28;20240;-69
2021/12/19 05:29:36;;;;;;;2.63;1.37;;;;;;;;;;5039703;28;20209;-68
2021/12/19 05:32:03;;;;;;;2.03;0.90;;;;;;;;;;5043934;28;20717;-68
2021/12/19 05:34:30;;;;;;;1.73;0.80;;;;;;;;;;5046033;28;20193;-68
2021/12/19 05:45:12;;;;;;;2.43;0.90;;;;;;;;;;5047695;28;20208;-68
2021/12/19 05:47:38;;;;;;;1.07;0.67;;;;;;;;;;5046377;28;20209;-68
2021/12/19 05:50:05;;;;;;;1.77;0.80;;;;;;;;;;5037826;28;20190;-68
2021/12/19 05:52:31;;;;;;;0.83;0.57;;;;;;;;;;5042075;28;20202;-68
2021/12/19 05:54:56;;;;;;;1.40;0.63;;;;;;;;;;5041267;28;20572;-68
2021/12/19 05:57:22;;;;;;;1.93;0.50;;;;;;;;;;5040361;28;20201;-68
2021/12/19 05:59:48;;;;;;;1.20;0.40;;;;;;;;;;5039694;28;20506;-68
2021/12/19 06:02:13;;;;;;;1.63;0.50;;;;;;;;;;5033831;28;20190;-68
2021/12/19 06:04:39;;;;;;;1.70;0.57;;;;;;;;;;5042875;28;20193;-68
2021/12/19 06:07:04;;;;;;;0.87;0.50;;;;;;;;;;5035003;28;20233;-68
2021/12/19 06:09:29;;;;;;;1.03;0.50;;;;;;;;;;5037419;28;20193;-68
2021/12/19 06:11:55;;;;;;;1.90;0.47;;;;;;;;;;5039581;28;20224;-68
2021/12/19 06:14:20;;;;;;;2.27;0.90;;;;;;;;;;5037452;28;20550;-68
2021/12/19 06:16:46;;;;;;;1.93;0.77;;;;;;;;;;5044236;28;20558;-68
2021/12/19 06:19:11;;;;;;;2.00;0.90;;;;;;;;;;5031927;28;20228;-68
2021/12/19 06:21:36;;;;;;;1.67;0.60;;;;;;;;;;5044092;28;20192;-68
2021/12/19 06:24:02;;;;;;;1.77;0.90;;;;;;;;;;5029879;28;20193;-68
2021/12/19 06:26:27;;;;;;;1.53;0.80;;;;;;;;;;5045815;28;20275;-68
2021/12/19 06:28:52;;;;;;;1.20;0.80;;;;;;;;;;5031777;28;20510;-68
2021/12/19 06:31:18;;;;;;;2.13;0.80;;;;;;;;;;5044655;28;20557;-68
2021/12/19 06:33:43;;;;;;;1.77;1.10;;;;;;;;;;5033671;28;20189;-69
2021/12/19 06:36:09;;;;;;;1.80;0.80;;;;;;;;;;5044837;28;20173;-69
2021/12/19 06:38:35;;;;;;;4.03;1.10;;;;;;;;;;5034995;28;20182;-69
2021/12/19 06:41:00;;;;;;;2.07;1.00;;;;;;;;;;5045849;28;20186;-69
2021/12/19 06:43:28;;;;;;;1.60;0.83;;;;;;;;;;5031562;28;20654;-69
2021/12/19 06:45:55;;;;;;;2.03;1.00;;;;;;;;;;5044172;28;20649;-69
2021/12/19 06:48:22;;;;;;;1.53;0.90;;;;;;;;;;5049644;28;20228;-69
2021/12/19 06:50:48;;;;;;;2.60;1.00;;;;;;;;;;5042610;28;20622;-69
2021/12/19 06:53:13;;;;;;;2.43;0.70;;;;;;;;;;5045568;28;20225;-69
2021/12/19 06:55:39;;;;;;;1.70;0.70;;;;;;;;;;5041326;28;20334;-69
2021/12/19 06:58:04;;;;;;;2.00;1.00;;;;;;;;;;5050558;28;20239;-69
2021/12/19 07:00:30;;;;;;;1.93;0.80;;;;;;;;;;5035392;28;20247;-69
2021/12/19 07:02:55;;;;;;;1.33;0.50;;;;;;;;;;5039000;28;20726;-69
2021/12/19 07:05:21;;;;;;;3.23;0.63;;;;;;;;;;5034655;28;20610;-69
2021/12/19 07:07:46;;;;;;;0.63;0.50;;;;;;;;;;5041310;28;20197;-69
2021/12/19 07:10:12;;;;;;;1.30;0.70;;;;;;;;;;5033508;28;20214;-68
2021/12/19 07:12:37;;;;;;;1.50;1.07;;;;;;;;;;5042307;28;20185;-68
2021/12/19 07:15:04;;;;;;;2.07;0.80;;;;;;;;;;5036167;28;20188;-68
2021/12/19 07:17:29;;;;;;;1.80;0.60;;;;;;;;;;5046842;28;20240;-68
2021/12/19 07:19:54;;;;;;;1.43;0.53;;;;;;;;;;5041301;28;20193;-68
2021/12/19 07:22:20;;;;;;;1.00;0.90;;;;;;;;;;5041693;28;20538;-68
2021/12/19 07:24:45;;;;;;;1.00;0.60;;;;;;;;;;5041690;28;20203;-68
2021/12/19 07:27:12;;;;;;;1.53;0.80;;;;;;;;;;5034774;28;20263;-68
2021/12/19 07:29:37;;;;;;;5.30;0.83;;;;;;;;;;5039967;28;20227;-68
2021/12/19 07:32:03;;;;;;;2.67;0.70;;;;;;;;;;5032102;28;20193;-68
2021/12/19 07:34:32;;;;;;;2.13;0.90;;;;;;;;;;5037824;28;20178;-68
2021/12/19 07:36:58;;;;;;;1.77;0.97;;;;;;;;;;5035898;28;20294;-68
2021/12/19 07:39:37;;;;;;;2.03;1.20;;;;;;;;;;5037539;28;20205;-68
2021/12/19 07:42:06;;;;;;;2.77;1.50;;;;;;;;;;5030545;28;20189;-68
2021/12/19 07:44:31;;;;;;;2.80;1.53;;;;;;;;;;5042848;28;20185;-68
2021/12/19 07:46:57;;;;;;;4.03;2.30;;;;;;;;;;5038169;28;20209;-69
2021/12/19 07:49:22;;;;;;;4.90;2.40;;;;;;;;;;5043778;28;20189;-68
2021/12/19 07:51:48;;;;;;;5.33;2.50;;;;;;;;;;5033912;28;20280;-68
2021/12/19 07:54:13;;;;;;;4.90;2.20;;;;;;;;;;5040358;28;20244;-68
2021/12/19 07:56:39;;;;;;;7.83;2.90;;;;;;;;;;5041056;28;20173;-68
2021/12/19 07:59:05;;;;;;;5.17;2.97;;;;;;;;;;5031191;28;20259;-68
2021/12/19 08:01:30;;;;;;;6.03;3.20;;;;;;;;;;5040585;28;20189;-68
2021/12/19 08:03:57;;;;;;;8.37;3.20;;;;;;;;;;5033522;28;21437;-68
2021/12/19 08:06:22;;;;;;;8.60;3.57;;;;;;;;;;5043575;28;20571;-68
2021/12/19 08:08:52;;;;;;;10.73;3.70;;;;;;;;;;5031660;28;20200;-68
2021/12/19 08:14:03;;;;;;;10.87;4.10;;;;;;;;;;4330387;28;10000736;-68
2021/12/19 08:16:28;;;;;;;11.07;4.90;;;;;;;;;;5039506;28;20177;-68
2021/12/19 08:18:54;;;;;;;11.07;4.67;;;;;;;;;;5027776;28;20707;-68
2021/12/19 08:21:20;;;;;;;10.70;4.13;;;;;;;;;;5032124;28;20273;-68
2021/12/19 08:23:47;;;;;;;8.13;4.23;;;;;;;;;;5024100;28;20280;-68
2021/12/19 08:26:12;;;;;;;7.23;4.00;;;;;;;;;;5030612;28;20281;-68
2021/12/19 08:28:38;;;;;;;9.33;4.67;;;;;;;;;;5028562;28;20568;-68
2021/12/19 08:31:03;;;;;;;10.07;4.60;;;;;;;;;;5030361;28;20269;-68
2021/12/19 08:33:29;;;;;;;14.60;4.70;;;;;;;;;;5039127;28;20255;-68
2021/12/19 08:35:54;;;;;;;9.83;4.63;;;;;;;;;;5023400;28;20264;-68
2021/12/19 08:38:20;;;;;;;11.20;5.03;;;;;;;;;;5034719;28;20568;-68
2021/12/19 08:40:47;;;;;;;12.70;5.30;;;;;;;;;;5025274;28;20197;-68
2021/12/19 08:43:13;;;;;;;10.80;5.20;;;;;;;;;;5038199;28;20217;-68
2021/12/19 08:45:39;;;;;;;10.80;5.50;;;;;;;;;;5031787;28;20302;-69
2021/12/19 08:48:05;;;;;;;14.53;5.97;;;;;;;;;;5040447;28;20205;-68
2021/12/19 08:50:31;;;;;;;11.43;5.90;;;;;;;;;;5031662;28;20205;-68
2021/12/19 08:52:56;;;;;;;13.53;6.30;;;;;;;;;;5040376;28;20651;-67
2021/12/19 08:55:22;;;;;;;17.23;6.20;;;;;;;;;;5028476;28;20220;-67
2021/12/19 08:57:47;;;;;;;12.03;6.40;;;;;;;;;;5034306;28;20192;-67
2021/12/19 09:00:14;;;;;;;15.27;7.10;;;;;;;;;;5028212;28;20213;-67
2021/12/19 09:02:42;;;;;;;18.03;6.83;;;;;;;;;;5040185;28;20351;-67
2021/12/19 09:05:08;;;;;;;20.97;7.30;;;;;;;;;;5037146;28;20713;-67
2021/12/19 09:07:34;;;;;;;23.13;7.83;;;;;;;;;;5031088;28;20721;-67
2021/12/19 09:10:01;;;;;;;22.93;7.83;;;;;;;;;;5039509;28;20716;-67
2021/12/19 09:12:27;;;;;;;18.03;7.47;;;;;;;;;;5030598;28;20227;-68
2021/12/19 09:14:53;;;;;;;19.73;6.93;;;;;;;;;;5038164;28;20275;-67
2021/12/19 09:17:18;;;;;;;17.70;6.90;;;;;;;;;;5029363;28;20209;-67
2021/12/19 09:19:44;;;;;;;21.70;8.03;;;;;;;;;;5035653;28;20200;-67
2021/12/19 09:22:09;;;;;;;14.37;5.67;;;;;;;;;;5025199;28;20506;-67
2021/12/19 09:24:35;;;;;;;19.83;6.33;;;;;;;;;;5036106;28;23295;-67
2021/12/19 09:27:01;;;;;;;17.90;6.13;;;;;;;;;;5026424;28;20600;-67
2021/12/19 09:29:28;;;;;;;12.03;5.50;;;;;;;;;;5037068;28;20615;-67
2021/12/19 09:31:55;;;;;;;19.00;5.37;;;;;;;;;;5034252;28;20268;-66
2021/12/19 09:34:21;;;;;;;19.03;5.50;;;;;;;;;;5042788;28;20219;-67
2021/12/19 09:36:46;;;;;;;14.53;5.07;;;;;;;;;;5042625;28;20174;-67
2021/12/19 09:39:11;;;;;;;20.20;5.13;;;;;;;;;;5033671;28;20222;-67
2021/12/19 09:41:43;;;;;;;14.83;5.03;;;;;;;;;;5039384;28;20672;-67
2021/12/19 09:44:11;;;;;;;11.77;4.47;;;;;;;;;;5036393;28;20218;-67
2021/12/19 09:46:39;;;;;;;13.53;4.73;;;;;;;;;;5036842;28;20209;-67
2021/12/19 09:49:06;;;;;;;13.63;4.60;;;;;;;;;;5035392;28;20185;-67
2021/12/19 09:51:32;;;;;;;13.50;4.57;;;;;;;;;;5039160;28;20537;-67
2021/12/19 09:53:57;;;;;;;12.27;4.37;;;;;;;;;;5032767;28;20189;-67
2021/12/19 09:56:23;;;;;;;14.00;4.23;;;;;;;;;;5040228;28;20182;-67
2021/12/19 09:58:50;;;;;;;16.53;4.33;;;;;;;;;;5035384;28;20609;-67
2021/12/19 10:01:15;;;;;;;10.97;4.30;;;;;;;;;;5037968;28;20182;-67
2021/12/19 10:03:41;;;;;;;15.43;4.83;;;;;;;;;;5028658;28;22271;-67
2021/12/19 10:06:19;;;;;;;12.00;5.27;;;;;;;;;;5033704;28;20226;-67
2021/12/19 10:08:48;;;;;;;13.50;5.10;;;;;;;;;;5033480;28;20842;-67
2021/12/19 10:11:46;;;;;;;14.77;5.03;;;;;;;;;;5041155;28;20182;-68
2021/12/19 10:14:27;;;;;;;17.67;5.20;;;;;;;;;;5032894;28;20209;-68
2021/12/19 10:16:52;;;;;;;12.83;5.70;;;;;;;;;;5039557;28;20212;-68
2021/12/19 10:19:18;;;;;;;14.73;5.53;;;;;;;;;;5033732;28;20572;-68
2021/12/19 10:21:44;;;;;;;14.13;5.10;;;;;;;;;;5036433;28;20255;-68
2021/12/19 10:24:27;;;;;;;13.10;5.17;;;;;;;;;;5043804;28;20234;-68
2021/12/19 10:26:53;;;;;;;12.67;5.40;;;;;;;;;;5041665;28;20609;-68
2021/12/19 10:29:18;;;;;;;14.93;5.40;;;;;;;;;;5044995;28;20193;-68
2021/12/19 10:32:01;;;;;;;11.10;4.63;;;;;;;;;;5034033;28;20177;-68
2021/12/19 10:34:26;;;;;;;11.73;4.57;;;;;;;;;;5042916;28;20182;-68
2021/12/19 10:36:51;;;;;;;13.73;4.50;;;;;;;;;;5029293;28;20581;-68
2021/12/19 10:39:19;;;;;;;11.03;3.77;;;;;;;;;;5043453;28;20521;-67
2021/12/19 10:41:56;;;;;;;13.63;4.47;;;;;;;;;;5031619;28;20503;-67
2021/12/19 10:47:24;;;;;;;13.17;3.90;;;;;;;;;;5040720;28;20212;-68
2021/12/19 10:49:49;;;;;;;12.83;4.23;;;;;;;;;;5041841;28;20268;-68
2021/12/19 10:52:30;;;;;;;13.67;4.60;;;;;;;;;;5035438;28;20268;-67
2021/12/19 10:55:01;;;;;;;13.50;4.30;;;;;;;;;;5041983;28;20254;-68
2021/12/19 10:57:35;;;;;;;17.40;4.47;;;;;;;;;;5042103;28;20208;-68
2021/12/19 11:00:08;;;;;;;15.37;4.57;;;;;;;;;;5046147;28;20215;-67
2021/12/19 11:02:36;;;;;;;12.67;3.80;;;;;;;;;;5038041;28;20625;-68
2021/12/19 11:05:02;;;;;;;9.83;4.10;;;;;;;;;;5049292;28;20192;-67
2021/12/19 11:07:27;;;;;;;9.27;3.83;;;;;;;;;;5038797;28;20214;-68
2021/12/19 11:09:52;;;;;;;10.67;3.97;;;;;;;;;;5043319;28;20189;-67
2021/12/19 11:12:18;;;;;;;12.23;4.27;;;;;;;;;;5038684;28;20759;-67
2021/12/19 11:14:48;;;;;;;12.03;4.37;;;;;;;;;;5047036;28;20181;-67
2021/12/19 11:17:20;;;;;;;13.43;4.03;;;;;;;;;;5037097;28;20673;-68
2021/12/19 11:19:46;;;;;;;11.67;3.80;;;;;;;;;;5042889;28;20837;-68
2021/12/19 11:22:13;;;;;;;11.27;4.17;;;;;;;;;;5037296;28;20188;-67
2021/12/19 11:24:39;;;;;;;14.50;4.60;;;;;;;;;;5041203;28;20192;-68
2021/12/19 11:27:07;;;;;;;8.60;3.27;;;;;;;;;;5046822;28;20326;-68
2021/12/19 11:29:33;;;;;;;11.83;3.57;;;;;;;;;;5030579;28;20657;-68
2021/12/19 11:32:04;;;;;;;9.63;3.37;;;;;;;;;;5047136;28;20189;-68
2021/12/19 11:35:07;;;;;;;11.40;4.60;;;;;;;;;;5033300;28;20200;-67
2021/12/19 11:37:36;;;;;;;7.60;3.27;;;;;;;;;;5048225;28;20181;-67
2021/12/19 11:40:04;;;;;;;11.27;2.93;;;;;;;;;;5038122;28;20216;-67
2021/12/19 11:42:34;;;;;;;10.30;3.67;;;;;;;;;;5042213;28;20583;-68
2021/12/19 11:47:57;;;;;;;13.70;3.73;;;;;;;;;;5044624;28;20206;-68
2021/12/19 11:50:31;;;;;;;6.33;3.20;;;;;;;;;;5034817;28;20193;-68
2021/12/19 11:53:07;;;;;;;7.63;3.10;;;;;;;;;;5042536;28;20569;-68
2021/12/19 11:55:34;;;;;;;7.80;2.63;;;;;;;;;;5035012;28;20212;-68
2021/12/19 11:58:08;;;;;;;7.30;3.40;;;;;;;;;;5044056;28;20645;-66
2021/12/19 12:00:55;;;;;;;11.80;4.00;;;;;;;;;;5034954;28;20663;-68
2021/12/19 12:03:28;;;;;;;12.00;3.00;;;;;;;;;;5042902;28;20182;-68
2021/12/19 12:06:20;;;;;;;9.07;2.60;;;;;;;;;;5037525;28;20281;-68
2021/12/19 12:09:08;;;;;;;12.37;2.83;;;;;;;;;;5043510;28;20193;-68
2021/12/19 12:11:36;;;;;;;8.03;3.17;;;;;;;;;;5035164;28;20192;-68
2021/12/19 12:14:20;;;;;;;8.87;3.40;;;;;;;;;;5044829;28;20641;-68
2021/12/19 12:16:55;;;;;;;7.90;2.33;;;;;;;;;;5038940;28;20181;-68
2021/12/19 12:19:48;;;;;;;9.67;3.13;;;;;;;;;;5042261;28;20553;-68
2021/12/19 12:22:23;;;;;;;10.93;3.37;;;;;;;;;;5034825;28;20178;-68
2021/12/19 12:25:08;;;;;;;10.93;3.28;;;;;;;;;;4370779;28;10003113;-68
2021/12/19 12:27:35;;;;;;;16.87;4.07;;;;;;;;;;5033297;28;20429;-68
2021/12/19 12:30:02;;;;;;;14.00;3.33;;;;;;;;;;5041646;28;20204;-68
2021/12/19 12:32:27;;;;;;;12.10;3.70;;;;;;;;;;5033207;28;20212;-68
2021/12/19 12:34:53;;;;;;;9.17;3.43;;;;;;;;;;5038451;28;20542;-68
2021/12/19 12:37:19;;;;;;;15.33;3.77;;;;;;;;;;5032805;28;20192;-68
2021/12/19 12:39:45;;;;;;;11.17;3.27;;;;;;;;;;5039435;28;20222;-68
2021/12/19 12:42:11;;;;;;;10.57;3.00;;;;;;;;;;5029797;28;20222;-68
2021/12/19 12:44:37;;;;;;;10.70;3.73;;;;;;;;;;5038043;28;20229;-69
2021/12/19 12:47:03;;;;;;;12.47;4.43;;;;;;;;;;5025107;28;20312;-69
2021/12/19 12:49:34;;;;;;;9.80;3.57;;;;;;;;;;5040556;28;20653;-68
2021/12/19 12:52:05;;;;;;;16.03;3.50;;;;;;;;;;5028189;28;20185;-68
2021/12/19 12:54:36;;;;;;;8.93;2.80;;;;;;;;;;5043428;28;20244;-69
2021/12/19 12:57:08;;;;;;;8.97;3.33;;;;;;;;;;5037940;28;20204;-68
2021/12/19 12:59:38;;;;;;;12.80;3.50;;;;;;;;;;5042740;28;20193;-68
2021/12/19 13:02:20;;;;;;;11.30;3.33;;;;;;;;;;5044069;28;20195;-68
2021/12/19 13:04:48;;;;;;;8.83;3.00;;;;;;;;;;5034944;28;20219;-68
2021/12/19 13:07:19;;;;;;;9.53;3.20;;;;;;;;;;5043753;28;20221;-69
2021/12/19 13:10:00;;;;;;;8.80;3.00;;;;;;;;;;5033111;28;20667;-69
2021/12/19 13:12:31;;;;;;;15.73;3.50;;;;;;;;;;5043745;28;20189;-68
2021/12/19 13:15:03;;;;;;;14.07;3.60;;;;;;;;;;5031386;28;20232;-68
2021/12/19 13:17:31;;;;;;;11.90;3.37;;;;;;;;;;5039694;28;20193;-68
2021/12/19 13:20:01;;;;;;;8.27;2.70;;;;;;;;;;5031887;28;20540;-69
2021/12/19 13:22:29;;;;;;;10.27;3.17;;;;;;;;;;5041060;28;20189;-69
2021/12/19 13:24:59;;;;;;;11.50;3.13;;;;;;;;;;5039594;28;20570;-68
2021/12/19 13:27:28;;;;;;;15.00;2.73;;;;;;;;;;5040565;28;20255;-67
2021/12/19 13:30:27;;;;;;;8.97;2.93;;;;;;;;;;5034183;28;20250;-67
2021/12/19 13:32:54;;;;;;;14.27;3.13;;;;;;;;;;5041047;28;20200;-67
2021/12/19 13:35:26;;;;;;;9.60;2.70;;;;;;;;;;5033136;28;20200;-68
2021/12/19 13:38:04;;;;;;;11.57;3.13;;;;;;;;;;5042451;28;20185;-68
2021/12/19 13:40:33;;;;;;;10.37;2.83;;;;;;;;;;5035237;28;20193;-67
2021/12/19 13:43:07;;;;;;;7.47;2.63;;;;;;;;;;5040474;28;20629;-68
2021/12/19 13:45:42;;;;;;;10.97;3.13;;;;;;;;;;5035240;28;20196;-69
2021/12/19 13:48:20;;;;;;;11.00;2.80;;;;;;;;;;5043088;28;20212;-68
2021/12/19 13:50:53;;;;;;;10.10;2.63;;;;;;;;;;5038195;28;20200;-69
2021/12/19 13:53:19;;;;;;;12.53;2.50;;;;;;;;;;5036248;28;20253;-69
2021/12/19 13:56:00;;;;;;;14.77;2.97;;;;;;;;;;5033519;28;20213;-69
2021/12/19 13:58:35;;;;;;;7.63;2.43;;;;;;;;;;5041311;28;20239;-67
2021/12/19 14:01:16;;;;;;;13.90;2.87;;;;;;;;;;5034175;28;20547;-69
2021/12/19 14:03:46;;;;;;;11.73;2.30;;;;;;;;;;5035825;28;20599;-67
2021/12/19 14:06:13;;;;;;;13.00;2.50;;;;;;;;;;5037084;28;20241;-68
2021/12/19 14:08:38;;;;;;;11.83;2.60;;;;;;;;;;5042343;28;20225;-68
2021/12/19 14:11:13;;;;;;;12.37;2.97;;;;;;;;;;5035674;28;20197;-68
2021/12/19 14:13:41;;;;;;;8.17;2.30;;;;;;;;;;5042638;28;20722;-68
2021/12/19 14:16:11;;;;;;;11.00;2.73;;;;;;;;;;5035350;28;20263;-68
2021/12/19 14:18:38;;;;;;;10.43;3.17;;;;;;;;;;5045629;28;20576;-68
2021/12/19 14:21:04;;;;;;;11.83;3.07;;;;;;;;;;5045290;28;20204;-68
2021/12/19 14:23:37;;;;;;;9.07;3.07;;;;;;;;;;5034368;28;20201;-68
2021/12/19 14:26:03;;;;;;;10.10;2.33;;;;;;;;;;5045730;28;20193;-68
2021/12/19 14:28:33;;;;;;;10.47;2.33;;;;;;;;;;5037444;28;20225;-68
2021/12/19 14:31:02;;;;;;;10.13;2.90;;;;;;;;;;5042023;28;20271;-68
2021/12/19 14:33:39;;;;;;;9.70;2.33;;;;;;;;;;5036855;28;20631;-69
2021/12/19 14:36:10;;;;;;;15.87;2.70;;;;;;;;;;5044942;28;20189;-68
2021/12/19 14:38:37;;;;;;;11.70;2.50;;;;;;;;;;5032127;28;20279;-68
2021/12/19 14:41:07;;;;;;;11.77;2.83;;;;;;;;;;5044335;28;20287;-68
2021/12/19 14:43:36;;;;;;;19.77;3.70;;;;;;;;;;5032317;28;20189;-68
2021/12/19 14:46:04;;;;;;;14.50;2.63;;;;;;;;;;5044195;28;20604;-68
2021/12/19 14:48:39;;;;;;;8.67;2.40;;;;;;;;;;5035459;28;20209;-68
2021/12/19 14:51:23;;;;;;;11.03;3.10;;;;;;;;;;5042736;28;20195;-68
2021/12/19 14:53:56;;;;;;;13.80;3.53;;;;;;;;;;5035942;28;20201;-69
2021/12/19 14:56:26;;;;;;;11.37;3.33;;;;;;;;;;5044368;28;20642;-67
2021/12/19 14:58:54;;;;;;;9.63;3.10;;;;;;;;;;5035028;28;20239;-69
2021/12/19 15:01:25;;;;;;;15.17;3.10;;;;;;;;;;5043308;28;20303;-68
2021/12/19 15:04:05;;;;;;;16.50;3.27;;;;;;;;;;5036459;28;20580;-69
2021/12/19 15:06:37;;;;;;;11.20;2.40;;;;;;;;;;5043660;28;20256;-67
2021/12/19 15:09:05;;;;;;;14.43;3.10;;;;;;;;;;5035765;28;20212;-69
2021/12/19 15:11:31;;;;;;;16.10;3.80;;;;;;;;;;5042796;28;20194;-67
2021/12/19 15:13:56;;;;;;;16.20;4.10;;;;;;;;;;5037220;28;21235;-67
2021/12/19 15:16:22;;;;;;;12.50;2.97;;;;;;;;;;5041549;28;20181;-67
2021/12/19 15:18:47;;;;;;;8.73;2.50;;;;;;;;;;5044544;28;20709;-67
2021/12/19 15:21:14;;;;;;;16.53;3.10;;;;;;;;;;5033930;28;20192;-67
2021/12/19 15:23:42;;;;;;;17.17;3.50;;;;;;;;;;5041002;28;20696;-68
2021/12/19 15:26:14;;;;;;;14.37;2.80;;;;;;;;;;5033965;28;20629;-67
2021/12/19 15:28:40;;;;;;;15.00;2.80;;;;;;;;;;5043035;28;20216;-67
2021/12/19 15:31:06;;;;;;;13.80;2.90;;;;;;;;;;5032871;28;20197;-68
2021/12/19 15:33:31;;;;;;;12.47;3.00;;;;;;;;;;5042839;28;20186;-66
2021/12/19 15:35:56;;;;;;;17.27;3.13;;;;;;;;;;5034675;28;20181;-67
2021/12/19 15:38:22;;;;;;;11.07;2.80;;;;;;;;;;5044452;28;20501;-66
2021/12/19 15:40:47;;;;;;;17.90;3.20;;;;;;;;;;5031305;28;20260;-66
2021/12/19 15:43:13;;;;;;;15.93;3.60;;;;;;;;;;5039987;28;20185;-67